createdAt,value
2022-09-15T00:00:49.659Z,1.27
2022-09-15T00:03:17.858Z,1.40
2022-09-15T00:05:45.550Z,1.90
2022-09-15T00:08:13.296Z,1.40
2022-09-15T00:10:48.295Z,1.30
2022-09-15T00:13:16.030Z,1.40
2022-09-15T00:15:43.628Z,1.27
2022-09-15T00:18:11.860Z,1.48
2022-09-15T00:20:43.703Z,1.70
2022-09-15T00:23:12.223Z,1.80
2022-09-15T00:25:44.391Z,1.98
2022-09-15T00:28:12.483Z,1.75
2022-09-15T00:30:47.354Z,1.52
2022-09-15T00:33:16.492Z,1.60
2022-09-15T00:35:44.862Z,2.13
2022-09-15T00:38:13.173Z,1.50
2022-09-15T00:40:44.958Z,1.48
2022-09-15T00:43:13.103Z,1.50
2022-09-15T00:45:41.010Z,1.52
2022-09-15T00:48:11.475Z,1.50
2022-09-15T00:50:40.576Z,2.20
2022-09-15T00:53:09.990Z,1.80
2022-09-15T00:55:45.772Z,1.70
2022-09-15T00:58:16.642Z,1.65
2022-09-15T01:03:13.991Z,1.60
2022-09-15T01:05:44.011Z,1.33
2022-09-15T01:08:18.598Z,1.73
2022-09-15T01:10:46.928Z,1.60
2022-09-15T01:13:15.563Z,1.73
2022-09-15T01:16:01.689Z,1.75
2022-09-15T01:18:29.549Z,1.27
2022-09-15T01:21:00.786Z,1.65
2022-09-15T01:23:32.134Z,1.88
2022-09-15T01:26:30.713Z,2.15
2022-09-15T01:29:05.269Z,1.83
2022-09-15T01:32:00.703Z,2.50
2022-09-15T01:34:33.596Z,1.92
2022-09-15T01:37:06.487Z,2.05
2022-09-15T01:39:37.857Z,2.22
2022-09-15T01:42:10.978Z,2.40
2022-09-15T01:44:39.830Z,1.98
2022-09-15T01:47:09.961Z,2.33
2022-09-15T01:49:41.942Z,2.08
2022-09-15T01:52:09.839Z,1.85
2022-09-15T01:54:41.056Z,1.73
2022-09-15T01:57:08.779Z,1.77
2022-09-15T01:59:36.530Z,1.52
2022-09-15T02:02:13.739Z,1.50
2022-09-15T02:04:46.516Z,2.03
2022-09-15T02:07:16.474Z,1.23
2022-09-15T02:09:46.561Z,1.70
2022-09-15T02:12:24.614Z,1.45
2022-09-15T02:15:04.880Z,1.52
2022-09-15T02:17:35.697Z,1.17
2022-09-15T02:22:33.464Z,1.40
2022-09-15T02:25:03.485Z,1.70
2022-09-15T02:27:33.201Z,1.40
2022-09-15T02:30:06.284Z,1.33
2022-09-15T02:32:35.416Z,2.15
2022-09-15T02:35:07.965Z,1.55
2022-09-15T02:37:36.810Z,1.48
2022-09-15T02:40:05.122Z,1.30
2022-09-15T02:42:33.495Z,1.38
2022-09-15T02:45:01.983Z,1.40
2022-09-15T02:47:29.660Z,1.50
2022-09-15T02:49:58.009Z,1.52
2022-09-15T02:52:26.429Z,1.50
2022-09-15T02:54:54.417Z,2.42
2022-09-15T02:57:22.113Z,1.80
2022-09-15T03:00:08.597Z,2.05
2022-09-15T03:02:36.299Z,1.90
2022-09-15T03:05:03.934Z,1.98
2022-09-15T03:07:32.230Z,2.15
2022-09-15T03:10:00.275Z,1.98
2022-09-15T03:12:28.309Z,2.92
2022-09-15T03:14:56.004Z,2.30
2022-09-15T03:17:23.647Z,2.00
2022-09-15T03:19:51.300Z,2.80
2022-09-15T03:22:18.973Z,2.38
2022-09-15T03:24:46.597Z,2.78
2022-09-15T03:27:14.620Z,2.55
2022-09-15T03:29:42.272Z,2.10
2022-09-15T03:32:09.951Z,2.30
2022-09-15T03:34:37.522Z,1.88
2022-09-15T03:37:05.711Z,2.35
2022-09-15T03:39:33.414Z,2.63
2022-09-15T03:42:00.954Z,2.20
2022-09-15T03:44:28.743Z,2.25
2022-09-15T03:46:58.000Z,2.40
2022-09-15T03:49:26.087Z,2.30
2022-09-15T03:51:53.564Z,2.20
2022-09-15T03:54:21.065Z,2.33
2022-09-15T03:56:49.062Z,2.63
2022-09-15T03:59:18.820Z,2.83
2022-09-15T04:01:47.030Z,2.40
2022-09-15T04:04:15.247Z,2.30
2022-09-15T04:06:42.785Z,2.30
2022-09-15T04:09:10.294Z,2.30
2022-09-15T04:11:38.120Z,2.20
2022-09-15T04:14:05.591Z,2.05
2022-09-15T04:16:33.909Z,2.10
2022-09-15T04:19:01.452Z,2.90
2022-09-15T04:21:30.050Z,2.40
2022-09-15T04:23:57.805Z,2.33
2022-09-15T04:26:29.109Z,2.60
2022-09-15T04:28:59.523Z,2.72
2022-09-15T04:31:29.507Z,2.38
2022-09-15T04:33:57.263Z,2.25
2022-09-15T04:36:26.501Z,2.58
2022-09-15T04:38:54.180Z,2.38
2022-09-15T04:41:22.249Z,2.30
2022-09-15T04:43:50.448Z,2.05
2022-09-15T04:46:18.869Z,2.40
2022-09-15T04:48:46.926Z,1.98
2022-09-15T04:51:15.889Z,3.33
2022-09-15T04:53:43.536Z,1.90
2022-09-15T04:56:15.873Z,1.95
2022-09-15T04:58:47.241Z,2.55
2022-09-15T05:01:16.262Z,2.67
2022-09-15T05:03:44.440Z,2.60
2022-09-15T05:06:13.177Z,2.53
2022-09-15T05:08:41.401Z,2.78
2022-09-15T05:11:10.755Z,2.78
2022-09-15T05:13:43.966Z,2.90
2022-09-15T05:16:14.533Z,2.50
2022-09-15T05:18:43.624Z,2.95
2022-09-15T05:21:13.328Z,2.20
2022-09-15T05:23:41.856Z,2.50
2022-09-15T05:26:13.519Z,2.50
2022-09-15T05:28:42.166Z,2.10
2022-09-15T05:31:12.100Z,1.90
2022-09-15T05:33:40.398Z,2.00
2022-09-15T05:36:08.446Z,1.88
2022-09-15T05:38:37.232Z,1.75
2022-09-15T05:41:05.554Z,2.38
2022-09-15T05:43:34.118Z,1.83
2022-09-15T05:46:02.048Z,2.55
2022-09-15T05:48:30.349Z,1.70
2022-09-15T05:50:58.847Z,1.38
2022-09-15T05:53:26.823Z,1.60
2022-09-15T05:55:58.729Z,1.33
2022-09-15T05:58:27.535Z,1.33
2022-09-15T06:00:55.868Z,1.50
2022-09-15T06:03:28.743Z,1.30
2022-09-15T06:06:01.913Z,1.30
2022-09-15T06:08:34.049Z,1.40
2022-09-15T06:11:06.019Z,1.50
2022-09-15T06:13:33.730Z,2.15
2022-09-15T06:16:02.578Z,1.33
2022-09-15T06:18:30.638Z,3.58
2022-09-15T06:20:58.323Z,4.85
2022-09-15T06:23:26.012Z,1.70
2022-09-15T06:25:53.623Z,1.48
2022-09-15T06:28:21.319Z,1.30
2022-09-15T06:30:49.872Z,1.83
2022-09-15T06:33:17.505Z,1.48
2022-09-15T06:35:45.264Z,2.70
2022-09-15T06:38:13.328Z,2.33
2022-09-15T06:40:40.982Z,2.22
2022-09-15T06:43:08.784Z,2.33
2022-09-15T06:45:36.442Z,1.95
2022-09-15T06:48:23.351Z,1.55
2022-09-15T06:50:56.127Z,1.70
2022-09-15T06:53:24.197Z,1.88
2022-09-15T06:55:51.822Z,1.80
2022-09-15T06:58:19.854Z,1.55
2022-09-15T07:00:47.629Z,1.40
2022-09-15T07:03:15.452Z,1.30
2022-09-15T07:05:44.306Z,1.20
2022-09-15T07:08:11.908Z,1.20
2022-09-15T07:10:39.668Z,2.63
2022-09-15T07:13:07.406Z,1.42
2022-09-15T07:15:35.374Z,1.90
2022-09-15T07:18:02.973Z,1.90
2022-09-15T07:20:30.574Z,1.85
2022-09-15T07:22:58.286Z,1.20
2022-09-15T07:25:26.017Z,2.10
2022-09-15T07:27:53.722Z,1.00
2022-09-15T07:30:21.306Z,1.45
2022-09-15T07:32:48.919Z,1.30
2022-09-15T07:35:16.587Z,1.42
2022-09-15T07:37:44.813Z,1.00
2022-09-15T07:40:12.744Z,1.48
2022-09-15T07:42:43.537Z,1.25
2022-09-15T07:47:39.010Z,1.17
2022-09-15T07:50:07.366Z,1.48
2022-09-15T07:52:34.967Z,2.03
2022-09-15T07:55:02.676Z,1.20
2022-09-15T07:57:30.425Z,1.00
2022-09-15T07:59:58.028Z,1.95
2022-09-15T08:02:25.789Z,1.35
2022-09-15T08:04:53.571Z,1.67
2022-09-15T08:07:21.158Z,1.95
2022-09-15T08:09:49.616Z,1.75
2022-09-15T08:12:17.953Z,1.17
2022-09-15T08:14:45.695Z,1.40
2022-09-15T08:17:13.331Z,1.20
2022-09-15T08:19:41.130Z,1.65
2022-09-15T08:22:08.699Z,1.30
2022-09-15T08:24:37.358Z,1.35
2022-09-15T08:27:04.946Z,1.85
2022-09-15T08:29:32.901Z,1.30
2022-09-15T08:32:00.641Z,1.55
2022-09-15T08:34:29.745Z,1.20
2022-09-15T08:36:57.413Z,1.30
2022-09-15T08:39:25.107Z,1.25
2022-09-15T08:41:54.202Z,1.52
2022-09-15T08:44:37.591Z,1.98
2022-09-15T08:47:09.294Z,1.10
2022-09-15T08:49:55.499Z,1.27
2022-09-15T08:52:29.168Z,1.42
2022-09-15T08:54:58.394Z,1.60
2022-09-15T08:57:26.593Z,1.30
2022-09-15T08:59:54.927Z,1.92
2022-09-15T09:03:26.959Z,1.33
2022-09-15T09:05:59.393Z,1.70
2022-09-15T09:08:33.279Z,1.40
2022-09-15T09:11:13.311Z,1.73
2022-09-15T09:13:53.180Z,1.43
2022-09-15T09:16:27.092Z,1.30
2022-09-15T09:19:07.062Z,1.08
2022-09-15T09:21:56.441Z,1.50
2022-09-15T09:24:36.808Z,1.30
2022-09-15T09:27:05.042Z,1.05
2022-09-15T09:29:40.366Z,1.48
2022-09-15T09:32:15.441Z,1.30
2022-09-15T09:34:48.855Z,1.52
2022-09-15T09:37:17.070Z,1.95
2022-09-15T09:39:46.828Z,1.67
2022-09-15T09:42:15.988Z,1.47
2022-09-15T09:44:43.643Z,1.48
2022-09-15T09:47:13.173Z,2.15
2022-09-15T09:49:48.291Z,2.42
2022-09-15T09:52:34.333Z,2.45
2022-09-15T09:55:02.913Z,1.80
2022-09-15T09:57:40.473Z,1.70
2022-09-15T10:00:29.190Z,1.98
2022-09-15T10:02:56.840Z,3.15
2022-09-15T10:05:24.899Z,1.63
2022-09-15T10:07:52.593Z,1.70
2022-09-15T10:10:21.471Z,1.85
2022-09-15T10:12:49.764Z,1.55
2022-09-15T10:15:27.725Z,1.40
2022-09-15T10:17:56.264Z,0.93
2022-09-15T10:20:32.807Z,0.98
2022-09-15T10:23:08.249Z,1.10
2022-09-15T10:25:58.200Z,1.00
2022-09-15T10:28:26.515Z,1.10
2022-09-15T10:31:00.427Z,1.10
2022-09-15T10:33:29.423Z,1.00
2022-09-15T10:36:03.523Z,1.25
2022-09-15T10:38:34.946Z,1.30
2022-09-15T10:41:12.605Z,1.15
2022-09-15T10:43:48.141Z,1.13
2022-09-15T10:46:19.011Z,1.20
2022-09-15T10:48:57.581Z,1.30
2022-09-15T10:52:03.865Z,1.70
2022-09-15T10:54:49.909Z,1.50
2022-09-15T10:57:17.634Z,1.40
2022-09-15T11:00:04.186Z,1.20
2022-09-15T11:02:37.836Z,1.70
2022-09-15T11:05:22.023Z,1.20
2022-09-15T11:07:50.725Z,1.50
2022-09-15T11:10:18.411Z,1.20
2022-09-15T11:12:46.050Z,1.30
2022-09-15T11:15:44.026Z,0.98
2022-09-15T11:18:29.461Z,1.15
2022-09-15T11:21:06.380Z,1.20
2022-09-15T11:23:37.732Z,1.42
2022-09-15T11:26:08.356Z,1.08
2022-09-15T11:28:35.991Z,1.05
2022-09-15T11:31:06.683Z,1.17
2022-09-15T11:36:10.513Z,0.80
2022-09-15T11:38:42.793Z,1.10
2022-09-15T11:41:29.230Z,0.80
2022-09-15T11:44:02.972Z,0.85
2022-09-15T11:46:44.255Z,0.80
2022-09-15T11:49:17.135Z,0.85
2022-09-15T11:51:50.649Z,0.80
2022-09-15T11:54:21.916Z,0.95
2022-09-15T11:56:50.966Z,1.05
2022-09-15T11:59:43.796Z,0.88
2022-09-15T12:02:17.624Z,0.90
2022-09-15T12:04:49.941Z,0.70
2022-09-15T12:07:19.488Z,0.70
2022-09-15T12:09:48.249Z,0.68
2022-09-15T12:12:17.918Z,0.80
2022-09-15T12:14:46.810Z,0.63
2022-09-15T12:17:28.442Z,0.90
2022-09-15T12:20:00.320Z,0.90
2022-09-15T12:22:43.552Z,0.90
2022-09-15T12:25:32.914Z,1.77
2022-09-15T12:28:33.055Z,1.00
2022-09-15T12:31:27.016Z,0.97
2022-09-15T12:33:57.736Z,1.55
2022-09-15T12:38:52.961Z,1.08
2022-09-15T12:41:20.694Z,1.40
2022-09-15T12:43:56.588Z,0.82
2022-09-15T12:46:24.861Z,1.73
2022-09-15T12:48:57.667Z,0.70
2022-09-15T12:51:27.966Z,0.80
2022-09-15T12:53:55.855Z,0.63
2022-09-15T12:56:25.213Z,0.70
2022-09-15T12:58:53.653Z,0.70
2022-09-15T13:01:27.260Z,0.85
2022-09-15T13:03:55.374Z,0.80
2022-09-15T13:06:23.777Z,0.70
2022-09-15T13:09:04.044Z,1.05
2022-09-15T13:11:36.888Z,0.60
2022-09-15T13:14:06.736Z,0.70
2022-09-15T13:16:39.381Z,0.75
2022-09-15T13:19:27.265Z,0.85
2022-09-15T13:21:58.796Z,0.93
2022-09-15T13:24:44.983Z,0.80
2022-09-15T13:27:13.978Z,1.00
2022-09-15T13:29:49.185Z,0.95
2022-09-15T13:32:16.820Z,0.90
2022-09-15T13:35:13.919Z,0.93
2022-09-15T13:38:21.280Z,0.77
2022-09-15T13:41:05.412Z,0.80
2022-09-15T13:43:41.158Z,1.10
2022-09-15T13:46:12.511Z,1.05
2022-09-15T13:48:40.159Z,0.90
2022-09-15T13:51:13.895Z,1.30
2022-09-15T13:53:54.208Z,1.05
2022-09-15T13:56:30.091Z,0.85
2022-09-15T13:59:12.105Z,1.23
2022-09-15T14:01:43.104Z,1.45
2022-09-15T14:04:13.962Z,1.65
2022-09-15T14:06:44.592Z,1.20
2022-09-15T14:09:21.472Z,1.50
2022-09-15T14:11:51.087Z,1.60
2022-09-15T14:14:28.014Z,1.65
2022-09-15T14:16:56.714Z,1.15
2022-09-15T14:19:30.483Z,1.00
2022-09-15T14:21:58.815Z,1.13
2022-09-15T14:24:28.974Z,1.52
2022-09-15T14:26:59.245Z,1.67
2022-09-15T14:29:27.612Z,1.35
2022-09-15T14:32:00.754Z,1.75
2022-09-15T14:34:30.802Z,1.50
2022-09-15T14:37:03.957Z,1.43
2022-09-15T14:39:33.512Z,1.50
2022-09-15T14:42:09.609Z,1.48
2022-09-15T14:47:29.024Z,1.80
2022-09-15T14:50:32.865Z,1.90
2022-09-15T14:53:08.607Z,1.92
2022-09-15T14:55:45.866Z,1.92
2022-09-15T14:58:16.553Z,1.73
2022-09-15T15:03:18.344Z,2.17
2022-09-15T15:05:52.239Z,1.13
2022-09-15T15:08:29.834Z,1.60
2022-09-15T15:10:58.003Z,1.50
2022-09-15T15:13:25.806Z,1.35
2022-09-15T15:15:53.423Z,1.48
2022-09-15T15:18:40.960Z,1.20
2022-09-15T15:21:28.460Z,1.15
2022-09-15T15:23:56.058Z,1.13
2022-09-15T15:26:35.287Z,1.02
2022-09-15T15:29:03.052Z,1.92
2022-09-15T15:31:31.380Z,1.00
2022-09-15T15:34:05.108Z,1.05
2022-09-15T15:36:35.259Z,1.15
2022-09-15T15:39:05.169Z,1.10
2022-09-15T15:41:41.241Z,0.80
2022-09-15T15:44:26.153Z,0.90
2022-09-15T15:46:55.779Z,0.88
2022-09-15T15:49:32.522Z,1.15
2022-09-15T15:52:01.687Z,1.63
2022-09-15T15:54:29.488Z,0.93
2022-09-15T15:57:02.574Z,1.10
2022-09-15T15:59:30.308Z,1.20
2022-09-15T16:01:58.565Z,1.98
2022-09-15T16:04:26.608Z,1.33
2022-09-15T16:06:54.269Z,1.25
2022-09-15T16:09:21.888Z,1.52
2022-09-15T16:11:49.566Z,1.60
2022-09-15T16:14:17.388Z,1.40
2022-09-15T16:16:45.119Z,1.50
2022-09-15T16:19:13.706Z,1.40
2022-09-15T16:21:42.410Z,1.60
2022-09-15T16:24:14.743Z,1.70
2022-09-15T16:26:43.093Z,1.35
2022-09-15T16:29:10.869Z,1.88
2022-09-15T16:31:38.689Z,1.40
2022-09-15T16:34:06.342Z,1.67
2022-09-15T16:36:36.316Z,1.70
2022-09-15T16:39:04.528Z,1.40
2022-09-15T16:41:38.505Z,1.35
2022-09-15T16:44:07.489Z,1.73
2022-09-15T16:46:35.214Z,1.20
2022-09-15T16:49:02.845Z,1.48
2022-09-15T16:51:31.738Z,1.45
2022-09-15T16:53:59.916Z,1.30
2022-09-15T16:56:27.551Z,1.40
2022-09-15T16:59:00.143Z,1.20
2022-09-15T17:01:28.757Z,1.20
2022-09-15T17:03:56.463Z,1.40
2022-09-15T17:06:24.063Z,1.20
2022-09-15T17:08:51.687Z,1.30
2022-09-15T17:11:20.452Z,1.67
2022-09-15T17:13:48.192Z,1.52
2022-09-15T17:16:19.195Z,1.88
2022-09-15T17:18:47.040Z,1.63
2022-09-15T17:21:16.096Z,1.48
2022-09-15T17:23:45.521Z,1.48
2022-09-15T17:26:19.515Z,1.55
2022-09-15T17:28:47.463Z,1.13
2022-09-15T17:31:15.212Z,1.70
2022-09-15T17:33:43.258Z,1.40
2022-09-15T17:36:11.443Z,1.92
2022-09-15T17:38:41.184Z,1.73
2022-09-15T17:41:14.431Z,1.50
2022-09-15T17:43:42.428Z,1.48
2022-09-15T17:46:10.245Z,2.00
2022-09-15T17:48:39.156Z,1.80
2022-09-15T17:51:07.836Z,1.95
2022-09-15T17:53:35.496Z,1.67
2022-09-15T17:56:03.327Z,1.67
2022-09-15T17:58:31.925Z,1.67
2022-09-15T18:01:00.165Z,1.42
2022-09-15T18:03:35.066Z,1.85
2022-09-15T18:06:05.284Z,1.45
2022-09-15T18:08:33.269Z,1.70
2022-09-15T18:11:01.789Z,2.10
2022-09-15T18:13:30.250Z,2.58
2022-09-15T18:15:58.404Z,1.40
2022-09-15T18:18:27.550Z,1.60
2022-09-15T18:20:57.710Z,1.70
2022-09-15T18:23:26.765Z,1.33
2022-09-15T18:25:54.624Z,1.90
2022-09-15T18:28:22.270Z,1.67
2022-09-15T18:30:51.238Z,1.73
2022-09-15T18:33:20.483Z,1.80
2022-09-15T18:35:52.690Z,2.35
2022-09-15T18:38:22.028Z,2.40
2022-09-15T18:40:53.205Z,2.72
2022-09-15T18:43:21.761Z,2.30
2022-09-15T18:45:50.251Z,1.80
2022-09-15T18:48:18.192Z,1.65
2022-09-15T18:50:45.982Z,2.28
2022-09-15T18:53:14.269Z,2.67
2022-09-15T18:55:42.509Z,2.10
2022-09-15T18:58:10.563Z,4.63
2022-09-15T19:00:38.297Z,2.05
2022-09-15T19:03:09.572Z,3.03
2022-09-15T19:05:37.512Z,1.47
2022-09-15T19:08:05.569Z,1.75
2022-09-15T19:10:33.208Z,2.00
2022-09-15T19:13:01.052Z,1.70
2022-09-15T19:15:31.286Z,1.65
2022-09-15T19:17:59.014Z,1.63
2022-09-15T19:20:26.724Z,1.33
2022-09-15T19:22:54.423Z,1.40
2022-09-15T19:25:22.831Z,1.60
2022-09-15T19:27:50.507Z,1.73
2022-09-15T19:30:18.105Z,1.67
2022-09-15T19:32:45.905Z,1.52
2022-09-15T19:35:13.528Z,1.60
2022-09-15T19:37:41.886Z,1.80
2022-09-15T19:40:11.346Z,2.00
2022-09-15T19:42:39.839Z,1.30
2022-09-15T19:45:08.139Z,1.40
2022-09-15T19:47:35.728Z,1.70
2022-09-15T19:50:05.522Z,1.55
2022-09-15T19:52:33.451Z,1.60
2022-09-15T19:55:01.079Z,1.85
2022-09-15T19:57:28.792Z,1.67
2022-09-15T19:59:56.471Z,1.83
2022-09-15T20:02:24.212Z,2.28
2022-09-15T20:04:53.126Z,1.85
2022-09-15T20:07:20.755Z,2.17
2022-09-15T20:09:48.383Z,2.70
2022-09-15T20:12:16.076Z,2.38
2022-09-15T20:14:43.744Z,2.88
2022-09-15T20:17:11.370Z,2.60
2022-09-15T20:19:39.126Z,3.45
2022-09-15T20:22:06.648Z,2.40
2022-09-15T20:24:34.258Z,2.65
2022-09-15T20:27:01.864Z,2.75
2022-09-15T20:29:29.489Z,3.03
2022-09-15T20:31:57.473Z,2.92
2022-09-15T20:34:25.189Z,2.25
2022-09-15T20:36:52.814Z,2.65
2022-09-15T20:39:22.242Z,2.90
2022-09-15T20:41:50.055Z,2.35
2022-09-15T20:44:17.662Z,2.75
2022-09-15T20:46:45.346Z,3.05
2022-09-15T20:49:13.316Z,2.80
2022-09-15T20:51:41.130Z,2.42
2022-09-15T20:54:08.820Z,3.08
2022-09-15T20:56:36.741Z,2.60
2022-09-15T20:59:07.629Z,2.63
2022-09-15T21:01:37.062Z,2.53
2022-09-15T21:04:05.560Z,2.33
2022-09-15T21:06:33.218Z,2.80
2022-09-15T21:09:01.172Z,2.45
2022-09-15T21:11:29.643Z,2.17
2022-09-15T21:13:58.676Z,2.63
2022-09-15T21:16:27.877Z,2.45
2022-09-15T21:18:56.530Z,2.47
2022-09-15T21:21:25.153Z,2.70
2022-09-15T21:23:56.283Z,2.40
2022-09-15T21:26:25.483Z,2.50
2022-09-15T21:28:53.937Z,2.47
2022-09-15T21:31:22.863Z,3.00
2022-09-15T21:33:50.694Z,2.35
2022-09-15T21:36:23.149Z,2.08
2022-09-15T21:38:54.145Z,2.72
2022-09-15T21:41:22.991Z,2.65
2022-09-15T21:43:55.149Z,2.35
2022-09-15T21:46:24.340Z,3.00
2022-09-15T21:48:52.530Z,2.58
2022-09-15T21:51:24.644Z,2.53
2022-09-15T21:53:54.331Z,2.63
2022-09-15T21:56:22.436Z,2.50
2022-09-15T21:58:50.262Z,2.80
2022-09-15T22:01:19.312Z,2.63
2022-09-15T22:03:55.217Z,2.75
2022-09-15T22:06:27.661Z,2.42
2022-09-15T22:08:55.767Z,2.90
2022-09-15T22:11:23.966Z,3.35
2022-09-15T22:13:51.605Z,2.80
2022-09-15T22:16:20.717Z,2.85
2022-09-15T22:18:48.451Z,2.97
2022-09-15T22:21:17.392Z,2.88
2022-09-15T22:23:45.341Z,2.28
2022-09-15T22:26:14.183Z,2.60
2022-09-15T22:28:41.995Z,2.55
2022-09-15T22:31:11.212Z,2.67
2022-09-15T22:33:40.997Z,2.65
2022-09-15T22:36:12.705Z,2.30
2022-09-15T22:38:40.443Z,2.30
2022-09-15T22:41:09.362Z,2.40
2022-09-15T22:43:37.075Z,3.03
2022-09-15T22:46:04.952Z,2.28
2022-09-15T22:48:32.968Z,2.40
2022-09-15T22:51:00.578Z,2.58
2022-09-15T22:53:28.458Z,2.40
2022-09-15T22:56:21.464Z,2.20
2022-09-15T22:58:50.093Z,2.28
2022-09-15T23:01:18.936Z,2.30
2022-09-15T23:03:50.708Z,2.40
2022-09-15T23:06:18.473Z,2.53
2022-09-15T23:08:50.108Z,2.30
2022-09-15T23:11:17.927Z,2.03
2022-09-15T23:13:45.492Z,2.65
2022-09-15T23:16:13.301Z,2.72
2022-09-15T23:18:40.910Z,2.00
2022-09-15T23:21:09.502Z,2.60
2022-09-15T23:23:38.216Z,2.22
2022-09-15T23:26:07.225Z,2.17
2022-09-15T23:28:35.061Z,2.67
2022-09-15T23:31:02.799Z,2.45
2022-09-15T23:33:31.693Z,2.65
2022-09-15T23:36:00.476Z,1.85
2022-09-15T23:38:28.137Z,1.88
2022-09-15T23:40:55.709Z,2.40
2022-09-15T23:43:23.307Z,2.50
2022-09-15T23:45:51.297Z,2.25
2022-09-15T23:48:19.016Z,2.13
2022-09-15T23:50:46.680Z,2.67
2022-09-15T23:53:14.328Z,2.60
2022-09-15T23:55:41.951Z,2.53
2022-09-15T23:58:10.979Z,2.83
